Time;durP1;ratioP1;P1;durP2;ratioP2;P2;SDS_P1;SDS_P2;PMS_P1;PMS_P2;Temp;Humidity;BMP_temperature;BMP_pressure;BME280_temperature;BME280_humidity;BME280_pressure;Samples;Min_cycle;Max_cycle;Signal;HPM_P1;HPM_P2
2022/05/23 00:01:52;;;;;;;2.78;1.95;;;435.80;2355.20;;;;;;5030100;28;20026;-52
2022/05/23 00:04:18;;;;;;;2.63;1.88;;;435.80;2355.20;;;;;;5030013;28;20076;-52
2022/05/23 00:06:44;;;;;;;3.50;2.00;;;435.80;2355.20;;;;;;5029847;28;20485;-52
2022/05/23 00:09:11;;;;;;;4.85;1.92;;;435.80;2355.20;;;;;;5030113;28;20036;-49
2022/05/23 00:11:37;;;;;;;3.35;2.28;;;435.80;2355.20;;;;;;5029772;28;20021;-52
2022/05/23 00:14:03;;;;;;;3.33;1.85;;;435.80;2355.20;;;;;;5029840;28;20101;-52
2022/05/23 00:16:40;;;;;;;2.90;2.30;;;435.90;2355.20;;;;;;5029953;28;20375;-52
2022/05/23 00:19:09;;;;;;;3.65;2.20;;;435.90;2355.20;;;;;;5029766;28;20036;-51
2022/05/23 00:21:35;;;;;;;2.88;1.83;;;435.90;2355.20;;;;;;5029491;28;20441;-51
2022/05/23 00:24:01;;;;;;;3.22;1.95;;;435.90;2355.20;;;;;;5029661;28;20064;-52
2022/05/23 00:26:27;;;;;;;5.75;2.10;;;436.10;2355.20;;;;;;5029374;28;20069;-51
2022/05/23 00:28:53;;;;;;;3.67;1.98;;;460.80;2380.80;;;;;;5029589;28;20112;-52
2022/05/23 00:31:18;;;;;;;2.80;1.70;;;460.80;2380.80;;;;;;5030090;28;20022;-51
2022/05/23 00:36:31;;;;;;;3.17;1.88;;;460.90;2380.80;;;;;;5029998;28;20029;-52
2022/05/23 00:38:57;;;;;;;4.28;2.47;;;460.90;2380.80;;;;;;5029477;28;20025;-52
2022/05/23 00:44:13;;;;;;;4.13;2.42;;;460.80;2380.80;;;;;;5029727;28;20045;-52
2022/05/23 00:46:50;;;;;;;3.60;2.10;;;436.10;2355.20;;;;;;5029611;28;20025;-52
2022/05/23 00:49:20;;;;;;;3.80;2.13;;;436.00;2355.20;;;;;;5029474;28;20048;-52
2022/05/23 00:51:46;;;;;;;3.53;2.05;;;435.90;2355.20;;;;;;5031113;28;20029;-51
2022/05/23 00:54:12;;;;;;;3.33;1.85;;;435.90;2355.20;;;;;;5033101;28;20128;-52
2022/05/23 00:56:43;;;;;;;3.53;1.80;;;435.90;2355.20;;;;;;5033060;28;20475;-52
2022/05/23 00:59:13;;;;;;;3.00;2.13;;;436.00;2355.20;;;;;;5033097;28;20038;-52
2022/05/23 01:01:39;;;;;;;2.38;1.55;;;436.10;2355.20;;;;;;5033038;28;20027;-52
2022/05/23 01:04:06;;;;;;;2.60;1.80;;;436.10;2355.20;;;;;;5032925;28;20030;-52
2022/05/23 01:06:33;;;;;;;4.28;2.40;;;436.10;2355.20;;;;;;5032976;28;20091;-51
2022/05/23 01:09:00;;;;;;;4.15;2.05;;;436.10;2355.20;;;;;;5033080;28;20029;-54
2022/05/23 01:11:26;;;;;;;4.18;1.88;;;436.00;2355.20;;;;;;5032697;28;20032;-52
2022/05/23 01:13:56;;;;;;;3.45;1.80;;;436.00;2355.20;;;;;;5032968;28;20483;-53
2022/05/23 01:16:24;;;;;;;3.67;2.47;;;436.00;2355.20;;;;;;5032867;28;20105;-52
2022/05/23 01:18:50;;;;;;;3.20;2.05;;;436.10;2355.20;;;;;;5032748;28;20495;-51
2022/05/23 01:21:27;;;;;;;2.05;1.40;;;436.00;2355.20;;;;;;5032550;28;20030;-52
2022/05/23 01:23:59;;;;;;;3.17;1.83;;;435.80;2355.20;;;;;;5032650;28;20515;-52
2022/05/23 01:26:25;;;;;;;3.10;2.00;;;435.70;2355.20;;;;;;5032273;28;20132;-51
2022/05/23 01:28:51;;;;;;;4.20;1.90;;;435.60;2355.20;;;;;;5032832;28;20431;-51
2022/05/23 01:31:17;;;;;;;2.47;1.67;;;435.60;2355.20;;;;;;5032412;28;20238;-52
2022/05/23 01:33:43;;;;;;;3.10;1.60;;;435.60;2355.20;;;;;;5032340;28;20075;-51
2022/05/23 01:36:14;;;;;;;2.78;1.60;;;435.50;2355.20;;;;;;5032535;28;20036;-52
2022/05/23 01:38:40;;;;;;;2.30;1.38;;;435.70;2355.20;;;;;;5032429;28;20025;-52
2022/05/23 01:41:06;;;;;;;2.53;1.63;;;435.90;2355.20;;;;;;5014066;28;20048;-53
2022/05/23 01:43:32;;;;;;;3.92;1.70;;;436.00;2355.20;;;;;;5032256;28;20025;-52
2022/05/23 01:45:58;;;;;;;3.42;2.08;;;435.80;2355.20;;;;;;5031977;28;20029;-51
2022/05/23 01:48:25;;;;;;;5.88;2.13;;;435.90;2355.20;;;;;;5032098;28;20051;-52
2022/05/23 01:50:51;;;;;;;3.60;2.20;;;435.90;2355.20;;;;;;5032241;28;20048;-51
2022/05/23 01:53:17;;;;;;;3.03;2.05;;;436.00;2355.20;;;;;;5031871;28;20472;-51
2022/05/23 01:55:43;;;;;;;3.13;2.05;;;435.90;2355.20;;;;;;5032254;28;20065;-51
2022/05/23 01:58:09;;;;;;;3.85;2.20;;;461.20;2380.80;;;;;;5031902;28;20027;-52
2022/05/23 02:03:19;;;;;;;3.50;2.15;;;435.90;2355.20;;;;;;5031991;28;20047;-52
2022/05/23 02:05:44;;;;;;;3.05;1.73;;;435.80;2355.20;;;;;;5032059;28;20475;-51
2022/05/23 02:08:10;;;;;;;3.05;1.83;;;435.80;2355.20;;;;;;5031928;28;20031;-54
2022/05/23 02:10:36;;;;;;;4.55;2.53;;;435.90;2355.20;;;;;;5031629;28;20053;-52
2022/05/23 02:13:03;;;;;;;4.47;2.00;;;436.00;2355.20;;;;;;5031884;28;20025;-52
2022/05/23 02:15:31;;;;;;;2.90;2.15;;;436.00;2355.20;;;;;;5031404;28;20033;-52
2022/05/23 02:18:01;;;;;;;2.30;1.60;;;436.10;2355.20;;;;;;5031349;28;20491;-51
2022/05/23 02:20:27;;;;;;;4.38;1.98;;;436.10;2355.20;;;;;;5031711;28;20435;-51
2022/05/23 02:22:53;;;;;;;4.53;2.00;;;436.00;2355.20;;;;;;5031447;28;20021;-51
2022/05/23 02:25:20;;;;;;;5.25;2.10;;;435.70;2355.20;;;;;;5031676;28;20053;-51
2022/05/23 02:27:46;;;;;;;3.30;1.90;;;435.60;2355.20;;;;;;5031068;28;20037;-52
2022/05/23 02:30:12;;;;;;;4.72;2.15;;;435.60;2355.20;;;;;;5031360;28;20075;-52
2022/05/23 02:32:38;;;;;;;4.18;2.22;;;435.90;2355.20;;;;;;5030950;28;20037;-51
2022/05/23 02:35:04;;;;;;;3.40;2.00;;;435.90;2355.20;;;;;;5031054;28;20482;-51
2022/05/23 02:37:30;;;;;;;3.42;1.95;;;436.00;2355.20;;;;;;5031273;28;20043;-51
2022/05/23 02:39:55;;;;;;;3.53;2.10;;;436.10;2355.20;;;;;;5031086;28;20108;-51
2022/05/23 02:42:21;;;;;;;3.30;2.05;;;436.10;2355.20;;;;;;5031390;28;20109;-51
2022/05/23 02:44:47;;;;;;;3.47;1.88;;;436.00;2355.20;;;;;;5030947;28;20079;-53
2022/05/23 02:47:13;;;;;;;3.38;2.22;;;436.00;2355.20;;;;;;5031076;28;20033;-52
2022/05/23 02:49:38;;;;;;;7.90;2.60;;;435.90;2355.20;;;;;;5030784;28;20029;-52
2022/05/23 02:52:04;;;;;;;2.83;1.77;;;435.90;2355.20;;;;;;5030872;28;20025;-52
2022/05/23 02:54:30;;;;;;;3.17;1.88;;;435.90;2355.20;;;;;;5030857;28;20480;-51
2022/05/23 02:56:56;;;;;;;3.20;1.90;;;435.90;2355.20;;;;;;5030825;28;20080;-51
2022/05/23 02:59:23;;;;;;;3.92;2.30;;;435.60;2355.20;;;;;;5031019;28;20033;-53
2022/05/23 03:04:32;;;;;;;4.40;2.42;;;435.50;2355.20;;;;;;5031146;28;20072;-51
2022/05/23 03:06:58;;;;;;;3.47;2.08;;;435.60;2355.20;;;;;;5030484;28;20025;-51
2022/05/23 03:09:24;;;;;;;3.65;1.70;;;435.80;2355.20;;;;;;5030761;28;20375;-52
2022/05/23 03:11:49;;;;;;;3.03;1.90;;;435.90;2355.20;;;;;;5030811;28;20109;-52
2022/05/23 03:14:15;;;;;;;3.45;2.05;;;435.90;2355.20;;;;;;5029723;28;20128;-52
2022/05/23 03:16:41;;;;;;;3.17;1.90;;;435.80;2355.20;;;;;;5030485;28;20026;-51
2022/05/23 03:19:06;;;;;;;4.40;1.98;;;435.70;2355.20;;;;;;5030498;28;20026;-52
2022/05/23 03:27:00;;;;;;;2.80;1.73;;;435.70;2355.20;;;;;;5030744;28;20096;-51
2022/05/23 03:29:30;;;;;;;3.63;2.33;;;435.70;2355.20;;;;;;5030117;28;20029;-51
2022/05/23 03:31:56;;;;;;;3.65;2.20;;;435.90;2355.20;;;;;;5012630;28;20036;-51
2022/05/23 03:34:23;;;;;;;3.25;1.92;;;436.00;2355.20;;;;;;5030404;28;20108;-54
2022/05/23 03:36:48;;;;;;;4.50;2.38;;;436.00;2355.20;;;;;;5030335;28;20021;-51
2022/05/23 03:39:16;;;;;;;2.60;1.73;;;436.10;2355.20;;;;;;5030093;28;20032;-52
2022/05/23 03:41:41;;;;;;;3.58;2.30;;;460.80;2380.80;;;;;;5030239;28;20108;-51
2022/05/23 03:44:08;;;;;;;2.80;1.88;;;436.00;2355.20;;;;;;5030008;28;20057;-51
2022/05/23 03:46:35;;;;;;;4.45;2.10;;;436.00;2355.20;;;;;;5029975;28;20017;-51
2022/05/23 03:49:02;;;;;;;4.25;2.20;;;435.90;2355.20;;;;;;5030227;28;20025;-51
2022/05/23 03:51:28;;;;;;;4.07;2.40;;;461.00;2380.80;;;;;;5029931;28;20109;-52
2022/05/23 03:53:55;;;;;;;2.95;1.63;;;461.10;2380.80;;;;;;5029857;28;20117;-51
2022/05/23 03:56:21;;;;;;;3.40;2.10;;;461.20;2380.80;;;;;;5030129;28;20044;-51
2022/05/23 03:58:46;;;;;;;3.25;2.10;;;461.30;2380.80;;;;;;5029809;28;20108;-51
2022/05/23 04:01:17;;;;;;;4.75;2.95;;;461.60;2380.80;;;;;;5030188;28;20056;-51
2022/05/23 04:03:43;;;;;;;4.15;2.25;;;486.40;2380.80;;;;;;5030109;28;20487;-52
2022/05/23 04:06:09;;;;;;;3.35;2.42;;;486.60;2380.80;;;;;;5030091;28;20032;-53
2022/05/23 04:08:36;;;;;;;4.78;2.10;;;486.70;2380.80;;;;;;5029946;28;20029;-52
2022/05/23 04:11:02;;;;;;;2.35;1.65;;;486.80;2380.80;;;;;;5029735;28;20033;-51
2022/05/23 04:13:29;;;;;;;5.35;2.10;;;486.60;2380.80;;;;;;5029600;28;20030;-51
2022/05/23 04:15:55;;;;;;;3.38;2.10;;;486.60;2380.80;;;;;;5029710;28;20025;-51
2022/05/23 04:18:21;;;;;;;3.13;1.80;;;486.60;2380.80;;;;;;5029963;28;20029;-52
2022/05/23 04:20:47;;;;;;;3.45;2.15;;;486.60;2380.80;;;;;;5029753;28;20510;-52
2022/05/23 04:23:14;;;;;;;3.70;2.10;;;486.60;2380.80;;;;;;5029802;28;20038;-52
2022/05/23 04:25:42;;;;;;;3.13;1.60;;;486.60;2380.80;;;;;;5031253;28;20045;-51
2022/05/23 04:28:08;;;;;;;3.60;2.00;;;486.70;2380.80;;;;;;5033558;28;20106;-51
2022/05/23 04:30:34;;;;;;;3.85;2.30;;;486.50;2380.80;;;;;;5033614;28;20084;-51
2022/05/23 04:35:44;;;;;;;4.22;1.67;;;486.50;2380.80;;;;;;5033542;28;20886;-51
2022/05/23 04:38:11;;;;;;;3.92;2.30;;;486.50;2380.80;;;;;;5033651;28;20029;-51
2022/05/23 04:40:37;;;;;;;3.53;2.38;;;461.70;2380.80;;;;;;5033279;28;20029;-51
2022/05/23 04:43:03;;;;;;;3.05;2.05;;;486.40;2380.80;;;;;;5033314;28;20029;-51
2022/05/23 04:45:29;;;;;;;3.83;2.33;;;486.50;2380.80;;;;;;5033537;28;20039;-51
2022/05/23 04:50:39;;;;;;;4.60;2.47;;;486.50;2380.80;;;;;;5033643;28;20027;-51
2022/05/23 04:53:05;;;;;;;3.55;2.10;;;486.50;2380.80;;;;;;5032905;28;20033;-51
2022/05/23 04:55:33;;;;;;;4.03;2.35;;;486.80;2380.80;;;;;;5033014;28;20044;-51
2022/05/23 04:57:59;;;;;;;4.20;2.30;;;486.90;2380.80;;;;;;5033113;28;20109;-51
2022/05/23 05:00:29;;;;;;;3.88;2.22;;;487.00;2380.80;;;;;;5032921;28;20036;-51
2022/05/23 05:02:59;;;;;;;5.68;2.00;;;487.20;2380.80;;;;;;5032936;28;20439;-51
2022/05/23 05:05:26;;;;;;;3.58;2.15;;;487.20;2380.80;;;;;;5028105;28;20137;-51
2022/05/23 05:07:52;;;;;;;3.83;2.08;;;512.20;2380.80;;;;;;5013408;28;20026;-51
2022/05/23 05:10:18;;;;;;;4.43;2.55;;;512.50;2380.80;;;;;;5012975;28;20034;-51
2022/05/23 05:12:44;;;;;;;3.47;2.17;;;512.60;2380.80;;;;;;5013011;28;20033;-52
2022/05/23 05:15:10;;;;;;;3.90;1.98;;;537.70;2406.40;;;;;;5013094;28;20392;-51
2022/05/23 05:17:36;;;;;;;3.92;2.67;;;538.00;2406.40;;;;;;5012872;28;20042;-52
2022/05/23 05:20:02;;;;;;;3.20;2.00;;;538.20;2406.40;;;;;;5013094;28;20488;-60
2022/05/23 05:22:28;;;;;;;3.90;2.83;;;563.30;2432.00;;;;;;4994430;28;20065;-60
2022/05/23 05:24:54;;;;;;;3.45;2.47;;;563.60;2432.00;;;;;;5012431;28;20493;-60
2022/05/23 05:27:20;;;;;;;3.63;2.75;;;563.40;2432.00;;;;;;5013201;28;20037;-60
2022/05/23 05:29:45;;;;;;;4.40;2.08;;;563.30;2432.00;;;;;;5012564;28;20100;-59
2022/05/23 05:32:20;;;;;;;4.60;2.60;;;538.50;2406.40;;;;;;5012751;28;20113;-60
2022/05/23 05:35:01;;;;;;;3.53;2.45;;;563.60;2432.00;;;;;;5012374;28;20038;-59
2022/05/23 05:37:45;;;;;;;3.28;1.92;;;563.70;2432.00;;;;;;5011576;28;20030;-60
2022/05/23 05:40:14;;;;;;;3.78;2.70;;;563.90;2432.00;;;;;;5012682;28;20026;-60
2022/05/23 05:42:44;;;;;;;4.00;2.60;;;588.90;2432.00;;;;;;5012548;28;20120;-59
2022/05/23 05:45:18;;;;;;;3.75;2.65;;;564.10;2432.00;;;;;;5012854;28;20025;-59
2022/05/23 05:47:47;;;;;;;4.72;2.75;;;589.20;2432.00;;;;;;5012454;28;20088;-59
2022/05/23 05:50:40;;;;;;;4.43;2.60;;;615.20;2278.40;;;;;;5012492;28;20030;-59
2022/05/23 05:53:10;;;;;;;5.22;2.45;;;640.30;2150.40;;;;;;5008252;28;20515;-59
2022/05/23 05:55:38;;;;;;;7.07;2.70;;;615.10;2073.60;;;;;;5012282;28;20089;-59
2022/05/23 05:58:04;;;;;;;4.70;3.13;;;614.50;2201.60;;;;;;5012227;28;20025;-60
2022/05/23 06:00:30;;;;;;;3.50;2.60;;;589.20;2355.20;;;;;;5012120;28;20357;-59
2022/05/23 06:02:56;;;;;;;4.53;2.70;;;589.00;2432.00;;;;;;5012162;28;20060;-60
2022/05/23 06:05:22;;;;;;;4.53;3.20;;;588.80;2432.00;;;;;;5012436;28;20468;-59
2022/05/23 06:13:17;;;;;;;3.83;2.30;;;563.90;2432.00;;;;;;5011728;28;20072;-58
2022/05/23 06:15:43;;;;;;;4.22;2.50;;;563.90;2432.00;;;;;;5012171;28;20045;-59
2022/05/23 06:18:09;;;;;;;5.03;3.03;;;563.80;2432.00;;;;;;5012184;28;20018;-59
2022/05/23 06:20:35;;;;;;;4.75;3.47;;;563.40;2432.00;;;;;;5011684;28;20083;-59
2022/05/23 06:23:01;;;;;;;4.85;3.17;;;588.90;2432.00;;;;;;5011703;28;20018;-60
2022/05/23 06:25:28;;;;;;;5.03;3.50;;;614.70;2304.00;;;;;;5011558;28;20057;-62
2022/05/23 06:27:53;;;;;;;5.40;3.53;;;665.70;2073.60;;;;;;5011669;28;20018;-60
2022/05/23 06:30:20;;;;;;;5.88;4.00;;;691.60;1792.00;;;;;;5011790;28;20038;-59
2022/05/23 06:32:46;;;;;;;5.43;4.68;;;768.60;1561.60;;;;;;5011489;28;20102;-59
2022/05/23 06:35:13;;;;;;;6.30;4.40;;;870.90;1356.80;;;;;;5011592;28;20361;-62
2022/05/23 06:37:40;;;;;;;6.15;5.07;;;947.40;1203.20;;;;;;5011321;28;20393;-62
2022/05/23 06:40:09;;;;;;;8.20;4.85;;;972.90;1152.00;;;;;;5011443;28;20037;-61
2022/05/23 06:42:35;;;;;;;5.57;5.07;;;998.80;1100.80;;;;;;5011142;28;20101;-62
2022/05/23 06:45:02;;;;;;;5.05;4.65;;;;;;;;;;5011545;28;20540;-62
2022/05/23 06:47:28;;;;;;;5.10;4.60;;;;;;;;;;5011465;28;20030;-62
2022/05/23 06:49:54;;;;;;;6.22;5.72;;;1024.00;1049.60;;;;;;5011393;28;20033;-61
2022/05/23 06:52:20;;;;;;;5.43;5.03;;;1101.30;947.20;;;;;;5011586;28;20030;-63
2022/05/23 06:54:46;;;;;;;5.68;5.20;;;1076.10;947.20;;;;;;5010963;28;20072;-62
2022/05/23 06:57:12;;;;;;;5.35;4.85;;;1024.90;947.20;;;;;;5011110;28;20041;-62
2022/05/23 06:59:38;;;;;;;6.82;6.30;;;1075.60;947.20;;;;;;5011289;28;20451;-61
2022/05/23 07:02:07;;;;;;;7.60;6.07;;;1075.40;972.80;;;;;;5011173;28;20026;-62
2022/05/23 07:12:51;;;;;;;6.20;5.65;;;1024.20;921.60;;;;;;5011321;28;20037;-61
2022/05/23 07:15:16;;;;;;;7.60;6.95;;;1049.70;896.00;;;;;;5010886;28;20400;-62
2022/05/23 07:17:42;;;;;;;6.65;5.88;;;1024.40;947.20;;;;;;5011006;28;20441;-62
2022/05/23 07:20:08;;;;;;;7.25;6.65;;;1049.80;921.60;;;;;;5010803;28;20065;-62
2022/05/23 07:22:34;;;;;;;6.07;5.65;;;1050.20;921.60;;;;;;5010531;28;20045;-63
2022/05/23 07:25:01;;;;;;;6.60;5.95;;;1024.20;870.40;;;;;;5010444;28;20073;-62
2022/05/23 07:27:28;;;;;;;5.80;5.40;;;1050.30;870.40;;;;;;5010526;28;20432;-62
2022/05/23 07:29:54;;;;;;;6.45;5.97;;;1101.20;819.20;;;;;;5010849;28;20029;-62
2022/05/23 07:32:20;;;;;;;5.68;5.28;;;1100.90;793.60;;;;;;5010844;28;20022;-62
2022/05/23 07:34:46;;;;;;;5.50;5.00;;;1075.80;819.20;;;;;;5010310;28;20034;-61
2022/05/23 07:37:15;;;;;;;4.85;3.90;;;1050.40;844.80;;;;;;5010566;28;20407;-61
2022/05/23 07:39:41;;;;;;;4.45;3.00;;;998.90;921.60;;;;;;5010509;28;20541;-60
2022/05/23 07:42:08;;;;;;;4.65;3.20;;;947.70;921.60;;;;;;5010601;28;20080;-61
2022/05/23 07:44:35;;;;;;;3.22;2.83;;;870.70;1024.00;;;;;;5010525;28;20510;-61
2022/05/23 07:47:00;;;;;;;3.55;2.97;;;819.60;1049.60;;;;;;5010345;28;20026;-61
2022/05/23 07:49:29;;;;;;;3.47;2.72;;;820.10;1075.20;;;;;;5010241;28;20068;-60
2022/05/23 07:51:56;;;;;;;3.45;3.10;;;819.30;1100.80;;;;;;5010160;28;20065;-60
2022/05/23 08:02:38;;;;;;;4.25;3.90;;;922.00;921.60;;;;;;5016662;28;20045;-61
2022/05/23 08:05:04;;;;;;;5.43;5.03;;;973.60;870.40;;;;;;5016930;28;20034;-60
2022/05/23 08:07:30;;;;;;;4.65;4.25;;;1024.60;819.20;;;;;;5016791;28;20101;-60
2022/05/23 08:10:00;;;;;;;5.18;4.72;;;1050.00;844.80;;;;;;5016494;28;20480;-61
2022/05/23 08:12:30;;;;;;;4.97;4.47;;;972.90;921.60;;;;;;5016577;28;20014;-59
2022/05/23 08:14:56;;;;;;;5.15;4.63;;;998.90;896.00;;;;;;5016295;28;20488;-61
2022/05/23 08:17:22;;;;;;;3.67;3.38;;;922.00;921.60;;;;;;5016807;28;20033;-61
2022/05/23 08:19:49;;;;;;;3.45;3.05;;;896.30;921.60;;;;;;5016572;28;20096;-61
2022/05/23 08:22:16;;;;;;;3.58;3.28;;;845.40;998.40;;;;;;5016519;28;20091;-60
2022/05/23 08:24:41;;;;;;;2.85;2.55;;;845.20;1049.60;;;;;;5016341;28;20041;-60
2022/05/23 08:27:07;;;;;;;4.57;2.90;;;845.20;1049.60;;;;;;5016433;28;20037;-60
2022/05/23 08:29:35;;;;;;;3.85;2.95;;;870.50;1024.00;;;;;;5016346;28;20030;-60
2022/05/23 08:32:03;;;;;;;3.25;2.75;;;845.70;998.40;;;;;;5016585;28;20083;-61
2022/05/23 08:34:31;;;;;;;3.75;3.22;;;819.90;1024.00;;;;;;5016578;28;20117;-60
2022/05/23 08:36:58;;;;;;;3.60;2.85;;;794.50;1049.60;;;;;;5016284;28;20101;-61
2022/05/23 08:39:25;;;;;;;4.07;3.45;;;819.20;1024.00;;;;;;5016604;28;20037;-61
2022/05/23 08:41:52;;;;;;;3.47;3.03;;;819.90;1024.00;;;;;;5016593;28;20064;-60
2022/05/23 08:44:57;;;;;;;3.55;2.83;;;819.80;1024.00;;;;;;5016205;28;20583;-61
2022/05/23 08:47:33;;;;;;;6.00;2.58;;;819.40;1049.60;;;;;;4917619;29;20064;-60
2022/05/23 08:50:16;;;;;;;3.20;2.45;;;794.00;1075.20;;;;;;4917769;29;20517;-60
2022/05/23 08:52:55;;;;;;;4.90;2.47;;;819.30;1075.20;;;;;;4917803;29;20039;-60
2022/05/23 08:55:33;;;;;;;2.65;2.30;;;819.70;1100.80;;;;;;4917795;29;20092;-62
2022/05/23 08:58:20;;;;;;;5.03;2.63;;;768.40;1100.80;;;;;;4917406;29;20036;-62
2022/05/23 09:00:56;;;;;;;3.55;2.50;;;768.60;1100.80;;;;;;4917433;29;20052;-62
2022/05/23 09:03:30;;;;;;;4.93;2.55;;;793.80;1100.80;;;;;;4917541;29;20076;-60
2022/05/23 09:05:59;;;;;;;3.55;2.70;;;794.40;1100.80;;;;;;4917238;29;20539;-60
2022/05/23 09:08:27;;;;;;;4.00;2.63;;;793.90;1100.80;;;;;;4917392;29;20039;-60
2022/05/23 09:11:05;;;;;;;3.55;2.53;;;793.60;1100.80;;;;;;4917333;29;20044;-61
2022/05/23 09:13:37;;;;;;;3.78;2.50;;;794.00;1075.20;;;;;;4913638;29;20043;-60
2022/05/23 09:16:04;;;;;;;3.15;2.47;;;793.70;1100.80;;;;;;4914561;29;20498;-61
2022/05/23 09:18:40;;;;;;;5.05;2.50;;;793.90;1100.80;;;;;;4914536;29;20036;-61
2022/05/23 09:21:08;;;;;;;3.22;2.38;;;768.90;1100.80;;;;;;4914119;29;20024;-61
2022/05/23 09:23:45;;;;;;;4.97;2.60;;;768.40;1100.80;;;;;;4987744;28;20034;-62
2022/05/23 09:26:22;;;;;;;3.35;2.30;;;768.30;1100.80;;;;;;5012691;28;20057;-61
2022/05/23 09:28:51;;;;;;;2.45;2.03;;;768.90;1075.20;;;;;;5012839;28;20029;-61
2022/05/23 09:31:44;;;;;;;4.70;1.88;;;793.60;1075.20;;;;;;5012535;28;20026;-61
2022/05/23 09:34:36;;;;;;;3.08;2.03;;;794.50;1049.60;;;;;;5020524;28;20033;-61
2022/05/23 09:37:12;;;;;;;2.35;1.90;;;819.60;1049.60;;;;;;5019996;28;20372;-63
2022/05/23 09:39:58;;;;;;;3.38;2.60;;;820.10;1049.60;;;;;;5021603;28;20049;-62
2022/05/23 09:48:23;;;;;;;2.38;2.00;;;793.90;1024.00;;;;;;5032703;28;20080;-61
2022/05/23 09:51:01;;;;;;;3.33;2.30;;;794.10;1049.60;;;;;;5024308;28;20029;-62
2022/05/23 09:53:32;;;;;;;3.17;2.00;;;793.60;1075.20;;;;;;5019418;28;20510;-61
2022/05/23 09:56:31;;;;;;;4.22;2.50;;;794.00;1024.00;;;;;;5015202;28;20464;-62
2022/05/23 09:59:03;;;;;;;3.65;2.20;;;794.20;1024.00;;;;;;5012186;28;20144;-62
2022/05/23 10:01:32;;;;;;;3.70;2.45;;;768.40;1049.60;;;;;;5012126;28;20037;-62
2022/05/23 10:03:58;;;;;;;3.65;2.30;;;768.60;1075.20;;;;;;5011940;28;20034;-63
2022/05/23 10:06:46;;;;;;;3.33;2.30;;;768.20;1075.20;;;;;;5012082;28;20026;-62
2022/05/23 10:09:25;;;;;;;3.17;2.35;;;742.50;1126.40;;;;;;5012161;28;20033;-63
2022/05/23 10:11:54;;;;;;;2.75;1.85;;;768.10;1075.20;;;;;;5012244;28;20420;-62
2022/05/23 10:14:23;;;;;;;3.40;2.67;;;768.30;1049.60;;;;;;5012129;28;20033;-63
2022/05/23 10:16:54;;;;;;;3.25;2.00;;;743.20;1100.80;;;;;;5011970;28;20025;-63
2022/05/23 10:19:39;;;;;;;2.80;2.03;;;742.80;1100.80;;;;;;5011874;28;20040;-63
2022/05/23 10:22:15;;;;;;;3.53;2.30;;;742.60;1126.40;;;;;;5011697;28;20033;-64
2022/05/23 10:25:05;;;;;;;3.42;2.30;;;717.70;1126.40;;;;;;5011189;28;20037;-62
2022/05/23 10:27:31;;;;;;;3.10;2.20;;;742.60;1126.40;;;;;;5011790;28;20108;-63
2022/05/23 10:30:07;;;;;;;3.65;2.25;;;742.40;1152.00;;;;;;5011592;28;20053;-62
2022/05/23 10:32:37;;;;;;;2.80;2.10;;;717.00;1100.80;;;;;;5011399;28;20530;-63
2022/05/23 10:35:23;;;;;;;3.17;1.98;;;716.90;1126.40;;;;;;5011601;28;20045;-62
2022/05/23 10:37:50;;;;;;;4.75;2.42;;;717.60;1075.20;;;;;;5011103;28;20046;-63
2022/05/23 10:43:16;;;;;;;3.63;2.33;;;717.10;1126.40;;;;;;5011762;28;20041;-63
2022/05/23 10:45:54;;;;;;;4.00;2.85;;;717.50;1126.40;;;;;;5011348;28;20109;-62
2022/05/23 10:48:44;;;;;;;4.53;2.28;;;717.50;1126.40;;;;;;5011388;28;20052;-62
2022/05/23 10:51:42;;;;;;;3.08;2.10;;;717.60;1126.40;;;;;;5011535;28;20018;-63
2022/05/23 10:54:40;;;;;;;3.40;2.40;;;743.00;1177.60;;;;;;5011054;28;20177;-63
2022/05/23 10:57:27;;;;;;;2.80;2.20;;;742.90;1126.40;;;;;;5011354;28;20032;-63
2022/05/23 11:00:13;;;;;;;5.20;2.45;;;743.30;1100.80;;;;;;5011317;28;20172;-64
2022/05/23 11:02:54;;;;;;;3.13;1.90;;;743.10;1126.40;;;;;;5011004;28;20065;-63
2022/05/23 11:05:27;;;;;;;4.60;2.50;;;743.30;1100.80;;;;;;5011255;28;20018;-66
2022/05/23 11:08:08;;;;;;;3.70;2.22;;;742.90;1100.80;;;;;;5011138;28;20017;-64
2022/05/23 11:10:39;;;;;;;4.53;2.20;;;742.60;1100.80;;;;;;5010894;28;20034;-65
2022/05/23 11:13:11;;;;;;;3.53;1.85;;;768.20;1100.80;;;;;;5010943;28;20022;-66
2022/05/23 11:16:13;;;;;;;3.58;2.53;;;768.10;1100.80;;;;;;5010562;28;20030;-63
2022/05/23 11:18:58;;;;;;;6.22;2.50;;;743.10;1100.80;;;;;;5010863;28;20034;-64
2022/05/23 11:21:39;;;;;;;3.05;2.10;;;743.30;1100.80;;;;;;5010664;28;20480;-64
2022/05/23 11:24:19;;;;;;;4.20;2.25;;;743.10;1100.80;;;;;;5010507;28;20033;-64
2022/05/23 11:33:41;;;;;;;3.95;2.30;;;743.00;1126.40;;;;;;5010460;28;20112;-64
2022/05/23 11:35:23;;;;;;;3.03;2.08;;;717.60;1152.00;;;;;;5009791;28;20051;-64
2022/05/23 11:37:49;;;;;;;3.97;2.33;;;717.60;1152.00;;;;;;5010506;28;20084;-68
2022/05/23 11:40:28;;;;;;;3.20;2.00;;;717.40;1203.20;;;;;;5010425;28;20061;-64
2022/05/23 11:43:10;;;;;;;3.15;1.98;;;717.50;1203.20;;;;;;5010084;28;20026;-65
2022/05/23 11:48:39;;;;;;;3.60;2.10;;;717.20;1177.60;;;;;;5010473;28;20537;-64
2022/05/23 11:51:17;;;;;;;2.83;2.22;;;742.40;1177.60;;;;;;5010271;28;20053;-64
2022/05/23 11:54:04;;;;;;;3.15;1.95;;;742.40;1203.20;;;;;;5010185;28;20041;-66
2022/05/23 11:57:00;;;;;;;3.22;2.20;;;742.90;1203.20;;;;;;5010523;28;20026;-68
2022/05/23 11:59:26;;;;;;;2.55;1.95;;;768.10;1152.00;;;;;;5010245;28;20357;-64
2022/05/23 12:02:07;;;;;;;3.38;2.30;;;768.60;1126.40;;;;;;5010475;28;20460;-64
2022/05/23 12:04:34;;;;;;;8.32;4.68;;;768.30;1100.80;;;;;;5010213;28;20477;-65
2022/05/23 12:07:00;;;;;;;4.97;2.85;;;768.20;1126.40;;;;;;5010378;28;20026;-63
2022/05/23 12:09:29;;;;;;;5.35;2.35;;;768.60;1177.60;;;;;;5009947;28;20029;-64
2022/05/23 12:12:27;;;;;;;3.13;2.80;;;768.40;1126.40;;;;;;5009758;28;20527;-67
2022/05/23 12:14:56;;;;;;;3.58;2.60;;;768.50;1100.80;;;;;;5010219;28;20049;-66
2022/05/23 12:17:27;;;;;;;3.17;2.50;;;768.80;1203.20;;;;;;5010362;28;20432;-66
2022/05/23 12:19:56;;;;;;;5.05;3.20;;;768.40;1152.00;;;;;;5010247;28;20030;-66
2022/05/23 12:22:28;;;;;;;2.80;2.10;;;768.60;1177.60;;;;;;4991912;28;20124;-66
2022/05/23 12:25:09;;;;;;;6.28;2.78;;;768.90;1152.00;;;;;;5009595;28;20096;-65
2022/05/23 12:28:02;;;;;;;4.20;1.90;;;768.20;1126.40;;;;;;5014572;28;20029;-66
2022/05/23 12:30:27;;;;;;;3.58;2.30;;;768.10;1152.00;;;;;;4910940;29;20068;-66
2022/05/23 12:33:04;;;;;;;3.47;2.15;;;768.20;1152.00;;;;;;4911329;29;20119;-67
2022/05/23 12:35:41;;;;;;;3.15;2.20;;;768.60;1152.00;;;;;;4911233;29;20180;-64
2022/05/23 12:38:16;;;;;;;2.78;2.20;;;768.60;1100.80;;;;;;4913573;29;20032;-65
2022/05/23 12:41:19;;;;;;;4.07;2.42;;;768.40;1126.40;;;;;;4929931;29;20090;-65
2022/05/23 12:43:49;;;;;;;3.60;2.70;;;768.30;1126.40;;;;;;4930155;29;20160;-65
2022/05/23 12:46:42;;;;;;;3.50;2.00;;;743.10;1177.60;;;;;;4926794;29;20028;-64
2022/05/23 12:49:23;;;;;;;2.58;2.03;;;768.10;1152.00;;;;;;4921080;29;20550;-64
2022/05/23 12:52:03;;;;;;;5.18;2.80;;;743.30;1152.00;;;;;;4919772;29;20039;-64
2022/05/23 12:54:50;;;;;;;3.25;2.30;;;742.90;1152.00;;;;;;4918627;29;20052;-64
2022/05/23 12:57:58;;;;;;;3.97;2.10;;;743.30;1177.60;;;;;;4914565;29;20032;-64
2022/05/23 13:00:49;;;;;;;3.20;2.40;;;717.70;1203.20;;;;;;4858513;29;20112;-66
2022/05/23 13:03:18;;;;;;;4.05;2.30;;;742.50;1228.80;;;;;;4857633;29;20101;-64
2022/05/23 13:06:12;;;;;;;34.50;22.75;;;717.50;1254.40;;;;;;4857022;29;20061;-65
2022/05/23 13:08:51;;;;;;;7.55;5.05;;;717.10;1254.40;;;;;;4950623;29;20027;-64
2022/05/23 13:11:25;;;;;;;4.45;2.83;;;716.80;1254.40;;;;;;4948833;29;20659;-65
2022/05/23 13:13:51;;;;;;;3.65;2.72;;;717.10;1254.40;;;;;;4951387;29;20023;-65
2022/05/23 13:16:24;;;;;;;3.70;2.35;;;717.30;1280.00;;;;;;4950507;29;20118;-65
2022/05/23 13:27:10;;;;;;;4.13;2.53;;;717.50;1254.40;;;;;;4950276;29;20110;-66
2022/05/23 13:29:36;;;;;;;5.28;2.50;;;717.60;1228.80;;;;;;4947869;29;20023;-64
2022/05/23 13:32:10;;;;;;;3.85;2.50;;;717.70;1228.80;;;;;;5011376;28;20492;-65
2022/05/23 13:34:39;;;;;;;3.75;2.50;;;717.10;1228.80;;;;;;5031645;28;20029;-65
2022/05/23 13:37:06;;;;;;;3.00;1.88;;;742.50;1228.80;;;;;;5030613;28;20034;-65
2022/05/23 13:39:41;;;;;;;4.35;2.45;;;717.20;1228.80;;;;;;5012926;28;20053;-65
2022/05/23 13:42:18;;;;;;;6.22;2.83;;;717.40;1203.20;;;;;;5012478;28;20530;-65
2022/05/23 13:44:44;;;;;;;3.10;2.45;;;717.70;1228.80;;;;;;5012679;28;20021;-66
2022/05/23 13:47:14;;;;;;;3.47;2.50;;;742.40;1228.80;;;;;;5012673;28;20527;-64